Time;durP1;ratioP1;P1;durP2;ratioP2;P2;SDS_P1;SDS_P2;PMS_P1;PMS_P2;Temp;Humidity;BMP_temperature;BMP_pressure;BME280_temperature;BME280_humidity;BME280_pressure;Samples;Min_cycle;Max_cycle;Signal;HPM_P1;HPM_P2
2022/05/29 00:00:30;;;;;;;5.47;0.90;;;8.10;99.90;;;;;;5055578;28;20075;-74
2022/05/29 00:02:56;;;;;;;3.10;1.23;;;7.90;99.90;;;;;;5055820;28;20025;-74
2022/05/29 00:05:21;;;;;;;2.72;0.90;;;7.60;99.90;;;;;;5055655;28;20029;-74
2022/05/29 00:07:49;;;;;;;3.40;1.13;;;7.50;99.90;;;;;;5055458;28;20033;-74
2022/05/29 00:10:16;;;;;;;3.00;1.02;;;7.40;99.90;;;;;;5055376;28;20133;-74
2022/05/29 00:12:43;;;;;;;3.60;1.17;;;7.30;99.90;;;;;;5055383;28;20046;-74
2022/05/29 00:15:10;;;;;;;2.55;1.08;;;7.30;99.90;;;;;;5055567;28;20029;-74
2022/05/29 00:17:36;;;;;;;2.88;0.90;;;7.40;99.90;;;;;;5053990;28;20530;-75
2022/05/29 00:20:03;;;;;;;2.58;0.90;;;7.50;99.90;;;;;;5055177;28;20040;-74
2022/05/29 00:22:30;;;;;;;3.03;0.93;;;7.60;99.90;;;;;;5054150;28;20029;-74
2022/05/29 00:24:56;;;;;;;2.10;1.13;;;7.60;99.90;;;;;;5053852;28;20553;-74
2022/05/29 00:27:23;;;;;;;3.00;1.20;;;7.70;99.90;;;;;;5055433;28;20051;-74
2022/05/29 00:29:49;;;;;;;3.38;1.30;;;7.70;99.90;;;;;;5054997;28;20013;-74
2022/05/29 00:32:15;;;;;;;3.58;1.10;;;7.80;99.90;;;;;;5055303;28;20028;-74
2022/05/29 00:34:41;;;;;;;2.40;1.23;;;7.80;99.90;;;;;;5055248;28;20389;-75
2022/05/29 00:37:09;;;;;;;2.25;0.95;;;7.70;99.90;;;;;;5055237;28;20047;-75
2022/05/29 00:39:35;;;;;;;2.45;1.10;;;7.70;99.90;;;;;;5054671;28;20033;-75
2022/05/29 00:42:11;;;;;;;2.17;1.05;;;7.70;99.90;;;;;;5054814;28;20365;-75
2022/05/29 00:44:38;;;;;;;2.85;1.05;;;7.80;99.90;;;;;;5055211;28;20480;-74
2022/05/29 00:47:06;;;;;;;1.77;0.85;;;7.90;99.90;;;;;;5054761;28;20103;-75
2022/05/29 00:49:35;;;;;;;3.95;1.05;;;7.90;99.90;;;;;;5055035;28;20100;-74
2022/05/29 00:52:01;;;;;;;3.10;0.77;;;7.90;99.90;;;;;;5054626;28;20023;-75
2022/05/29 00:54:30;;;;;;;2.00;1.00;;;7.90;99.90;;;;;;5055074;28;20029;-75
2022/05/29 00:56:57;;;;;;;2.13;0.90;;;7.90;99.90;;;;;;5054772;28;20051;-75
2022/05/29 00:59:25;;;;;;;2.63;0.93;;;7.90;99.90;;;;;;5054369;28;20029;-75
2022/05/29 01:01:52;;;;;;;2.15;0.88;;;7.80;99.90;;;;;;5054546;28;20021;-75
2022/05/29 01:04:20;;;;;;;2.55;1.20;;;7.70;99.90;;;;;;5052965;28;20040;-75
2022/05/29 01:06:46;;;;;;;2.90;1.17;;;7.50;99.90;;;;;;5054648;28;20481;-74
2022/05/29 01:09:13;;;;;;;2.35;0.80;;;7.30;99.90;;;;;;5054222;28;20077;-74
2022/05/29 01:11:45;;;;;;;2.25;0.70;;;7.30;99.90;;;;;;5054212;28;20067;-74
2022/05/29 01:14:16;;;;;;;2.50;1.00;;;7.30;99.90;;;;;;5052967;28;20029;-74
2022/05/29 01:16:58;;;;;;;3.00;0.80;;;7.20;99.90;;;;;;5054194;28;20032;-74
2022/05/29 01:19:41;;;;;;;1.98;0.77;;;7.30;99.90;;;;;;5054541;28;20032;-74
2022/05/29 01:22:20;;;;;;;1.30;0.68;;;7.30;99.90;;;;;;5054345;28;20035;-74
2022/05/29 01:25:04;;;;;;;3.00;0.73;;;7.30;99.90;;;;;;5054214;28;20124;-74
2022/05/29 01:27:59;;;;;;;2.03;0.85;;;7.30;99.90;;;;;;5053951;28;20025;-75
2022/05/29 01:30:27;;;;;;;2.75;0.73;;;7.30;99.90;;;;;;5053823;28;20017;-75
2022/05/29 01:33:32;;;;;;;2.65;0.90;;;7.30;99.90;;;;;;5053771;28;20021;-75
2022/05/29 01:36:11;;;;;;;3.10;0.90;;;7.20;99.90;;;;;;5053832;28;20163;-75
2022/05/29 01:38:54;;;;;;;2.55;1.38;;;7.00;99.90;;;;;;5054049;28;20052;-75
2022/05/29 01:41:24;;;;;;;3.47;1.55;;;6.90;99.90;;;;;;5053920;28;20033;-75
2022/05/29 01:44:17;;;;;;;4.68;2.08;;;6.80;99.90;;;;;;5052329;28;20032;-74
2022/05/29 01:46:45;;;;;;;6.13;2.83;;;6.80;99.90;;;;;;5054259;28;20040;-75
2022/05/29 01:49:29;;;;;;;11.13;6.15;;;6.80;99.90;;;;;;5053852;28;20029;-75
2022/05/29 01:52:15;;;;;;;13.52;7.90;;;6.70;99.90;;;;;;5053364;28;20036;-75
2022/05/29 01:54:52;;;;;;;41.08;19.50;;;6.60;99.90;;;;;;5053819;28;20032;-75
2022/05/29 01:57:23;;;;;;;33.63;14.75;;;6.50;99.90;;;;;;5053515;28;20028;-75
2022/05/29 01:59:52;;;;;;;;;;;6.40;99.90;;;;;;5053835;28;20116;-74
2022/05/29 02:02:25;;;;;;;7.97;2.60;;;6.30;99.90;;;;;;5053490;28;19912;-75
2022/05/29 02:04:55;;;;;;;4.70;1.50;;;6.30;99.90;;;;;;5053423;28;20029;-75
2022/05/29 02:10:28;;;;;;;2.97;1.50;;;6.40;99.90;;;;;;5053616;28;20028;-75
2022/05/29 02:13:26;;;;;;;4.78;3.47;;;6.40;99.90;;;;;;5053363;28;20028;-75
2022/05/29 02:16:01;;;;;;;5.80;3.08;;;6.50;99.90;;;;;;5049282;28;20032;-75
2022/05/29 02:18:59;;;;;;;2.83;1.98;;;6.50;99.90;;;;;;5053300;28;20428;-75
2022/05/29 02:21:43;;;;;;;4.60;1.80;;;6.50;99.90;;;;;;5049147;28;20116;-75
2022/05/29 02:24:13;;;;;;;1.65;0.85;;;6.60;99.90;;;;;;5053140;28;20029;-75
2022/05/29 02:26:48;;;;;;;2.17;1.00;;;6.60;99.90;;;;;;5053788;28;20020;-75
2022/05/29 02:29:15;;;;;;;2.88;1.20;;;6.60;99.90;;;;;;5053651;28;20342;-74
2022/05/29 02:32:03;;;;;;;3.58;1.00;;;6.60;99.90;;;;;;5053223;28;20032;-75
2022/05/29 02:34:50;;;;;;;2.08;1.10;;;6.60;99.90;;;;;;5053082;28;20025;-75
2022/05/29 02:37:31;;;;;;;3.88;1.50;;;6.60;99.90;;;;;;5053112;28;20082;-75
2022/05/29 02:40:07;;;;;;;;;;;6.50;99.90;;;;;;5053447;28;20025;-75
2022/05/29 02:42:48;;;;;;;3.50;1.02;;;6.40;99.90;;;;;;5053399;28;19996;-75
2022/05/29 02:45:35;;;;;;;2.30;1.10;;;6.20;99.90;;;;;;5053201;28;20021;-75
2022/05/29 02:48:10;;;;;;;5.57;1.10;;;6.10;99.90;;;;;;5052895;28;20025;-75
2022/05/29 02:51:01;;;;;;;4.70;0.90;;;6.00;99.90;;;;;;5053039;28;20033;-75
2022/05/29 02:53:27;;;;;;;1.60;1.10;;;6.00;99.90;;;;;;5052984;28;20104;-75
2022/05/29 02:55:53;;;;;;;3.03;0.98;;;6.00;99.90;;;;;;5053197;28;20106;-75
2022/05/29 02:58:23;;;;;;;3.03;1.20;;;6.10;99.90;;;;;;5053166;28;20013;-75
2022/05/29 03:01:20;;;;;;;2.80;1.17;;;6.10;99.90;;;;;;5052933;28;20024;-75
2022/05/29 03:04:10;;;;;;;2.92;1.05;;;6.20;99.90;;;;;;5055978;28;20029;-75
2022/05/29 03:06:45;;;;;;;1.43;0.67;;;6.20;99.90;;;;;;5056959;28;20489;-75
2022/05/29 03:09:28;;;;;;;5.63;1.10;;;6.30;99.90;;;;;;5057408;28;20353;-75
2022/05/29 03:11:55;;;;;;;2.17;0.90;;;6.20;99.90;;;;;;5056589;28;20021;-75
2022/05/29 03:14:29;;;;;;;3.28;1.00;;;6.20;99.90;;;;;;5056484;28;20484;-75
2022/05/29 03:16:58;;;;;;;1.38;0.80;;;6.20;99.90;;;;;;5056516;28;20033;-75
2022/05/29 03:19:24;;;;;;;2.30;0.95;;;6.20;99.90;;;;;;5056348;28;20055;-75
2022/05/29 03:21:56;;;;;;;2.42;1.02;;;6.20;99.90;;;;;;5056347;28;20025;-75
2022/05/29 03:24:28;;;;;;;1.80;0.90;;;6.20;99.90;;;;;;5056540;28;20025;-75
2022/05/29 03:27:22;;;;;;;2.55;0.80;;;6.20;99.90;;;;;;5056578;28;20032;-75
2022/05/29 03:29:57;;;;;;;2.45;1.02;;;6.30;99.90;;;;;;5056380;28;20025;-74
2022/05/29 03:32:23;;;;;;;2.67;0.95;;;6.30;99.90;;;;;;5056163;28;20056;-75
2022/05/29 03:34:49;;;;;;;2.90;0.90;;;6.30;99.90;;;;;;5054864;28;20037;-75
2022/05/29 03:37:15;;;;;;;2.08;1.00;;;6.40;99.90;;;;;;5054820;28;20029;-75
2022/05/29 03:39:40;;;;;;;3.42;1.10;;;6.40;99.90;;;;;;5055957;28;20028;-75
2022/05/29 03:42:06;;;;;;;3.47;1.20;;;6.40;99.90;;;;;;5055971;28;20021;-75
2022/05/29 03:44:32;;;;;;;2.38;1.20;;;6.40;99.90;;;;;;5055849;28;20064;-74
2022/05/29 03:46:58;;;;;;;3.55;1.52;;;6.50;99.90;;;;;;5056002;28;20051;-75
2022/05/29 03:49:25;;;;;;;3.00;1.27;;;6.50;99.90;;;;;;5056268;28;20036;-74
2022/05/29 03:51:51;;;;;;;2.67;1.10;;;6.50;99.90;;;;;;5056077;28;20140;-75
2022/05/29 03:54:17;;;;;;;4.40;1.50;;;6.40;99.90;;;;;;5055735;28;20025;-75
2022/05/29 03:56:43;;;;;;;3.35;1.20;;;6.50;99.90;;;;;;5055703;28;20036;-74
2022/05/29 03:59:09;;;;;;;3.63;1.42;;;6.40;99.90;;;;;;5055600;28;20047;-74
2022/05/29 04:01:35;;;;;;;2.90;1.27;;;6.40;99.90;;;;;;5055905;28;20071;-75
2022/05/29 04:04:02;;;;;;;2.53;1.38;;;6.40;99.90;;;;;;5055780;28;20025;-74
2022/05/29 04:06:30;;;;;;;3.97;1.65;;;6.40;99.90;;;;;;5055528;28;20025;-75
2022/05/29 04:14:28;;;;;;;9.30;3.78;;;6.50;99.90;;;;;;5055219;28;20079;-75
2022/05/29 04:16:53;;;;;;;9.70;4.18;;;6.50;99.90;;;;;;5055347;28;20452;-74
2022/05/29 04:19:19;;;;;;;7.25;2.97;;;6.50;99.90;;;;;;5055501;28;20539;-75
2022/05/29 04:21:46;;;;;;;4.60;2.47;;;6.50;99.90;;;;;;5055723;28;20531;-75
2022/05/29 04:24:12;;;;;;;3.67;1.67;;;6.50;99.90;;;;;;5055688;28;20116;-75
2022/05/29 04:26:38;;;;;;;3.83;1.60;;;6.50;99.90;;;;;;5055198;28;20027;-74
2022/05/29 04:29:05;;;;;;;5.45;1.88;;;6.60;99.90;;;;;;5055348;28;20099;-75
2022/05/29 04:31:32;;;;;;;2.83;1.52;;;6.60;99.90;;;;;;5055070;28;20025;-75
2022/05/29 04:33:58;;;;;;;3.20;1.40;;;6.60;99.90;;;;;;5054987;28;20036;-74
2022/05/29 04:36:24;;;;;;;2.85;1.55;;;6.60;99.90;;;;;;5054939;28;20025;-75
2022/05/29 04:38:51;;;;;;;2.67;1.25;;;6.70;99.90;;;;;;5055396;28;20043;-74
2022/05/29 04:41:19;;;;;;;3.42;1.23;;;6.70;99.90;;;;;;5054773;28;20029;-74
2022/05/29 04:43:45;;;;;;;2.03;1.10;;;6.70;99.90;;;;;;5055016;28;20142;-75
2022/05/29 04:46:11;;;;;;;2.58;1.20;;;6.70;99.90;;;;;;5053495;28;20017;-75
2022/05/29 04:48:36;;;;;;;1.70;1.10;;;6.70;99.90;;;;;;5054785;28;20063;-75
2022/05/29 04:51:06;;;;;;;2.80;1.50;;;6.70;99.90;;;;;;5054580;28;20469;-75
2022/05/29 04:53:32;;;;;;;2.58;1.10;;;6.70;99.90;;;;;;5054647;28;20013;-75
2022/05/29 04:55:59;;;;;;;2.83;1.10;;;6.80;99.90;;;;;;5054857;28;20044;-75
2022/05/29 04:58:27;;;;;;;3.92;1.38;;;6.80;99.90;;;;;;5054588;28;20084;-74
2022/05/29 05:01:00;;;;;;;2.78;1.10;;;6.80;99.90;;;;;;5054380;28;20025;-75
2022/05/29 05:03:27;;;;;;;2.58;1.10;;;6.80;99.90;;;;;;5054678;28;20025;-74
2022/05/29 05:05:53;;;;;;;2.15;1.10;;;6.80;99.90;;;;;;5054406;28;20385;-75
2022/05/29 05:08:19;;;;;;;2.20;0.88;;;6.90;99.90;;;;;;5053138;28;20075;-75
2022/05/29 05:10:45;;;;;;;4.10;1.10;;;6.90;99.90;;;;;;5054291;28;20017;-74
2022/05/29 05:13:10;;;;;;;2.63;1.02;;;6.90;99.90;;;;;;5054249;28;20473;-75
2022/05/29 05:15:36;;;;;;;3.47;1.00;;;7.00;99.90;;;;;;5054230;28;20067;-75
2022/05/29 05:18:03;;;;;;;1.83;0.90;;;7.00;99.90;;;;;;5054157;28;20099;-75
2022/05/29 05:20:30;;;;;;;3.08;1.00;;;7.00;99.90;;;;;;5054044;28;20052;-74
2022/05/29 05:22:56;;;;;;;2.85;1.60;;;7.00;99.90;;;;;;5054260;28;20104;-75
2022/05/29 05:25:22;;;;;;;7.47;1.60;;;7.00;99.90;;;;;;5053755;28;20113;-75
2022/05/29 05:27:48;;;;;;;5.32;2.15;;;6.90;99.90;;;;;;5053978;28;20021;-75
2022/05/29 05:30:14;;;;;;;3.58;2.00;;;6.90;99.90;;;;;;5054131;28;20028;-74
2022/05/29 05:32:39;;;;;;;3.42;1.60;;;6.90;99.90;;;;;;5053898;28;20021;-74
2022/05/29 05:35:07;;;;;;;2.50;1.45;;;6.90;99.90;;;;;;5053850;28;20503;-75
2022/05/29 05:37:35;;;;;;;2.78;1.45;;;6.90;99.90;;;;;;5053817;28;20025;-75
2022/05/29 05:40:03;;;;;;;3.03;1.77;;;7.00;99.90;;;;;;5053766;28;20416;-74
2022/05/29 05:42:29;;;;;;;3.20;1.42;;;7.10;99.90;;;;;;5052482;28;20029;-74
2022/05/29 05:44:55;;;;;;;2.53;1.17;;;7.10;99.90;;;;;;5052353;28;20029;-74
2022/05/29 05:47:22;;;;;;;2.45;1.17;;;7.20;99.90;;;;;;5053538;28;20393;-74
2022/05/29 05:49:49;;;;;;;2.80;1.05;;;7.20;99.90;;;;;;5053543;28;20027;-74
2022/05/29 05:52:15;;;;;;;2.50;1.00;;;7.20;99.90;;;;;;5053879;28;20029;-73
2022/05/29 05:54:40;;;;;;;2.20;1.20;;;7.20;99.90;;;;;;5053601;28;20400;-74
2022/05/29 05:57:06;;;;;;;2.83;1.13;;;7.20;99.90;;;;;;5053476;28;20108;-74
2022/05/29 05:59:34;;;;;;;4.80;1.10;;;7.30;99.90;;;;;;5053640;28;20021;-74
2022/05/29 06:01:59;;;;;;;2.47;1.20;;;7.30;99.90;;;;;;5053434;28;20032;-74
2022/05/29 06:04:25;;;;;;;2.97;1.10;;;7.30;99.90;;;;;;5053402;28;20033;-74
2022/05/29 06:06:51;;;;;;;3.72;1.20;;;7.30;99.90;;;;;;5053377;28;20021;-74
2022/05/29 06:09:20;;;;;;;2.38;1.02;;;7.40;99.90;;;;;;5053845;28;20499;-73
2022/05/29 06:11:46;;;;;;;1.90;1.08;;;7.40;99.90;;;;;;5053612;28;20032;-74
2022/05/29 06:14:12;;;;;;;2.40;1.00;;;7.50;99.90;;;;;;5053292;28;20025;-74
2022/05/29 06:16:38;;;;;;;3.22;1.23;;;7.50;99.90;;;;;;5053545;28;20025;-74
2022/05/29 06:19:06;;;;;;;5.57;1.35;;;7.60;99.90;;;;;;5053802;28;20031;-73
2022/05/29 06:21:35;;;;;;;3.13;1.30;;;7.60;99.90;;;;;;5053835;28;20480;-74
2022/05/29 06:24:00;;;;;;;3.05;1.05;;;7.70;99.90;;;;;;5051861;28;20054;-73
2022/05/29 06:26:26;;;;;;;2.35;1.02;;;7.70;99.90;;;;;;5053153;28;20021;-73
2022/05/29 06:28:52;;;;;;;2.28;1.00;;;7.70;99.90;;;;;;5053438;28;20018;-73
2022/05/29 06:31:18;;;;;;;2.47;1.10;;;7.80;99.90;;;;;;5053055;28;20385;-73
2022/05/29 06:33:43;;;;;;;3.92;1.20;;;7.90;99.90;;;;;;5053409;28;20057;-73
2022/05/29 06:36:15;;;;;;;4.55;1.30;;;8.00;99.90;;;;;;5053830;28;20025;-73
2022/05/29 06:38:41;;;;;;;;;;;8.00;99.90;;;;;;5058177;28;20039;-74
2022/05/29 06:41:08;;;;;;;3.17;1.42;;;8.00;99.90;;;;;;5057128;28;19995;-73
2022/05/29 06:43:34;;;;;;;3.10;1.55;;;7.90;99.90;;;;;;5057578;28;20107;-73
2022/05/29 06:46:01;;;;;;;3.28;1.65;;;7.90;99.90;;;;;;5056976;28;20132;-74
2022/05/29 06:48:27;;;;;;;3.38;1.30;;;7.90;99.90;;;;;;5056847;28;20052;-74
2022/05/29 06:50:53;;;;;;;3.35;1.40;;;7.90;99.90;;;;;;5056903;28;20079;-73
2022/05/29 06:53:20;;;;;;;2.30;1.50;;;7.90;99.90;;;;;;5055649;28;20104;-73
2022/05/29 06:55:53;;;;;;;4.35;2.08;;;7.90;99.90;;;;;;5057442;28;20038;-73
2022/05/29 06:58:19;;;;;;;7.90;5.80;;;7.90;99.90;;;;;;5056814;28;20025;-73
2022/05/29 07:08:57;;;;;;;3.60;1.52;;;7.90;99.90;;;;;;5056631;28;20027;-73
2022/05/29 07:11:25;;;;;;;5.15;1.77;;;8.00;99.90;;;;;;5056793;28;20025;-73
2022/05/29 07:13:51;;;;;;;2.63;1.33;;;8.10;99.90;;;;;;5056511;28;20021;-73
2022/05/29 07:16:17;;;;;;;3.83;1.70;;;8.10;99.90;;;;;;5056718;28;20116;-73
2022/05/29 07:18:44;;;;;;;3.78;1.80;;;8.20;99.90;;;;;;5056404;28;20108;-73
2022/05/29 07:21:10;;;;;;;3.28;1.20;;;8.20;99.90;;;;;;5056293;28;20086;-73
2022/05/29 07:23:36;;;;;;;2.00;1.35;;;8.30;99.90;;;;;;5056248;28;20029;-73
2022/05/29 07:26:03;;;;;;;6.30;2.10;;;8.30;99.90;;;;;;5056207;28;20389;-73
2022/05/29 07:28:29;;;;;;;6.75;2.90;;;8.40;99.90;;;;;;5056524;28;20024;-73
2022/05/29 07:30:55;;;;;;;5.82;3.17;;;8.50;99.90;;;;;;5056490;28;20422;-72
2022/05/29 07:33:23;;;;;;;5.95;3.13;;;8.50;99.90;;;;;;5056474;28;20029;-72
2022/05/29 07:35:49;;;;;;;4.75;2.55;;;8.50;99.90;;;;;;5056161;28;20021;-72
2022/05/29 07:38:14;;;;;;;4.65;2.20;;;8.60;99.90;;;;;;5056149;28;20021;-72
2022/05/29 07:40:40;;;;;;;3.78;1.73;;;8.60;99.90;;;;;;5056011;28;20446;-72
2022/05/29 07:43:24;;;;;;;3.45;1.73;;;8.60;99.90;;;;;;5055145;28;20025;-72
2022/05/29 07:45:52;;;;;;;2.55;1.38;;;8.70;99.90;;;;;;5056299;28;20078;-72
2022/05/29 07:48:19;;;;;;;3.47;1.60;;;8.70;99.90;;;;;;5055193;28;20028;-72
2022/05/29 07:50:45;;;;;;;4.57;1.90;;;8.80;99.90;;;;;;5056092;28;20040;-72
2022/05/29 07:53:11;;;;;;;2.97;1.80;;;8.80;99.90;;;;;;5055881;28;20055;-72
2022/05/29 07:55:38;;;;;;;3.92;1.90;;;8.90;99.90;;;;;;5056079;28;20112;-72
2022/05/29 07:58:07;;;;;;;3.95;1.77;;;8.90;99.90;;;;;;5055755;28;20031;-72
2022/05/29 08:00:34;;;;;;;4.57;2.30;;;8.90;99.90;;;;;;5054945;28;20033;-72
2022/05/29 08:03:01;;;;;;;5.22;2.30;;;9.00;99.90;;;;;;5055848;28;20100;-72
2022/05/29 08:05:29;;;;;;;3.60;2.08;;;9.00;99.90;;;;;;5054247;28;20025;-72
2022/05/29 08:07:55;;;;;;;4.63;2.05;;;9.10;99.90;;;;;;5055802;28;20021;-72
2022/05/29 08:10:23;;;;;;;5.18;2.40;;;9.10;99.90;;;;;;5055704;28;20029;-72
2022/05/29 08:12:49;;;;;;;5.22;2.20;;;9.20;99.90;;;;;;5055673;28;20025;-72
2022/05/29 08:15:15;;;;;;;3.33;2.20;;;9.20;99.90;;;;;;5055697;28;20032;-72
2022/05/29 08:17:41;;;;;;;3.65;2.03;;;9.20;99.90;;;;;;5055319;28;20389;-72
2022/05/29 08:20:10;;;;;;;4.50;2.63;;;9.30;99.90;;;;;;5055274;28;20036;-72
2022/05/29 08:22:35;;;;;;;3.05;1.92;;;9.30;99.90;;;;;;5055413;28;20497;-72
2022/05/29 08:30:51;;;;;;;3.80;2.10;;;9.40;99.90;;;;;;5055336;28;20091;-71
2022/05/29 08:33:23;;;;;;;3.90;2.03;;;9.50;99.90;;;;;;5053819;28;20025;-71
2022/05/29 08:36:00;;;;;;;5.88;2.30;;;9.50;99.90;;;;;;5055248;28;20032;-71
2022/05/29 08:38:27;;;;;;;4.30;2.15;;;9.50;99.90;;;;;;5055262;28;20112;-71
2022/05/29 08:41:04;;;;;;;8.60;2.58;;;9.50;99.90;;;;;;5054831;28;20035;-71
2022/05/29 08:43:35;;;;;;;5.00;2.30;;;9.60;99.90;;;;;;5055045;28;20017;-71
2022/05/29 08:46:16;;;;;;;7.03;3.05;;;9.60;99.90;;;;;;5055116;28;20048;-71
2022/05/29 08:48:41;;;;;;;8.63;2.70;;;9.60;99.90;;;;;;5055018;28;20052;-71
2022/05/29 08:51:26;;;;;;;4.68;2.25;;;9.50;99.90;;;;;;5054925;28;20017;-71
2022/05/29 08:54:12;;;;;;;6.80;2.20;;;9.50;99.90;;;;;;5055531;28;20380;-72
2022/05/29 08:56:55;;;;;;;4.70;2.08;;;9.40;99.90;;;;;;5054810;28;20033;-72
2022/05/29 08:59:55;;;;;;;4.40;2.08;;;9.40;99.90;;;;;;5054708;28;20052;-71
2022/05/29 09:02:49;;;;;;;5.78;2.28;;;9.30;99.90;;;;;;5053126;28;20041;-71
2022/05/29 09:05:46;;;;;;;4.63;2.08;;;9.30;99.90;;;;;;5054598;28;20048;-71
2022/05/29 09:08:22;;;;;;;3.67;1.80;;;9.30;99.90;;;;;;5053980;28;20112;-72
2022/05/29 09:10:56;;;;;;;4.88;1.80;;;9.40;99.90;;;;;;5054536;28;20465;-71
2022/05/29 09:13:37;;;;;;;3.30;1.92;;;9.50;99.90;;;;;;5054586;28;20044;-71
2022/05/29 09:16:17;;;;;;;;;;;9.50;99.90;;;;;;5054661;28;20377;-71
2022/05/29 09:19:00;;;;;;;4.95;1.98;;;9.50;99.90;;;;;;5054184;28;20353;-72
2022/05/29 09:21:37;;;;;;;6.32;2.35;;;9.60;99.90;;;;;;5054310;28;20539;-72
2022/05/29 09:24:10;;;;;;;4.93;1.90;;;9.50;99.90;;;;;;5054049;28;20029;-71
2022/05/29 09:26:38;;;;;;;4.43;1.80;;;9.50;99.90;;;;;;5054059;28;20025;-71
2022/05/29 09:29:08;;;;;;;4.32;2.25;;;9.40;99.90;;;;;;5053946;28;20531;-71
2022/05/29 09:31:36;;;;;;;9.07;3.15;;;9.40;99.90;;;;;;5053936;28;20021;-72
2022/05/29 09:34:02;;;;;;;4.88;2.53;;;9.30;99.90;;;;;;5053861;28;20485;-71
2022/05/29 09:36:55;;;;;;;12.02;5.60;;;9.20;99.90;;;;;;5052593;28;20029;-71
2022/05/29 09:39:35;;;;;;;14.88;7.13;;;9.20;99.90;;;;;;5053809;28;20032;-71
2022/05/29 09:42:11;;;;;;;28.42;6.88;;;9.10;99.90;;;;;;5054067;28;20025;-71
2022/05/29 09:44:37;;;;;;;12.48;6.15;;;9.10;99.90;;;;;;5053629;28;20032;-71
2022/05/29 09:50:10;;;;;;;7.47;2.85;;;9.10;99.90;;;;;;5053863;28;20439;-70
2022/05/29 09:52:41;;;;;;;5.40;2.45;;;9.10;99.90;;;;;;5053971;28;20408;-71
2022/05/29 09:55:31;;;;;;;5.45;2.45;;;9.20;99.90;;;;;;5053840;28;20361;-71
2022/05/29 09:58:00;;;;;;;3.42;2.00;;;9.20;99.90;;;;;;5053858;28;20037;-71
2022/05/29 10:00:26;;;;;;;5.13;2.70;;;9.20;99.90;;;;;;5053391;28;20103;-71
2022/05/29 10:02:52;;;;;;;4.25;2.53;;;9.20;99.90;;;;;;5053998;28;20112;-71
2022/05/29 10:05:35;;;;;;;3.50;1.95;;;9.30;99.90;;;;;;5053349;28;20057;-71
2022/05/29 10:08:26;;;;;;;3.67;1.77;;;9.50;99.90;;;;;;5053652;28;20574;-71
2022/05/29 10:10:52;;;;;;;5.05;1.67;;;9.60;99.90;;;;;;5052940;28;20056;-71
2022/05/29 10:13:39;;;;;;;7.18;2.40;;;9.60;99.90;;;;;;5053289;28;20111;-71
2022/05/29 10:16:06;;;;;;;4.57;1.92;;;9.70;99.90;;;;;;5053389;28;20204;-71
2022/05/29 10:18:37;;;;;;;4.50;2.78;;;9.70;99.90;;;;;;5051964;28;20112;-70
2022/05/29 10:21:23;;;;;;;3.20;1.77;;;9.70;99.90;;;;;;5053246;28;20021;-72
2022/05/29 10:23:52;;;;;;;5.03;1.60;;;9.70;99.90;;;;;;5053718;28;20059;-70
2022/05/29 10:26:36;;;;;;;3.67;1.70;;;9.60;99.90;;;;;;5053935;28;20524;-71
2022/05/29 10:29:19;;;;;;;3.25;1.77;;;9.60;99.90;;;;;;5053287;28;20028;-70
2022/05/29 10:31:49;;;;;;;2.90;1.20;;;9.50;99.90;;;;;;5053502;28;20017;-71
2022/05/29 10:34:24;;;;;;;5.15;1.67;;;9.50;99.90;;;;;;5053478;28;20017;-71
2022/05/29 10:36:50;;;;;;;4.60;1.35;;;9.50;99.90;;;;;;5053161;28;20025;-72
2022/05/29 10:39:31;;;;;;;4.10;1.50;;;9.50;99.90;;;;;;5053334;28;20095;-72
2022/05/29 10:41:58;;;;;;;3.07;1.50;;;9.50;99.90;;;;;;5053408;28;20027;-72
2022/05/29 10:44:57;;;;;;;3.63;1.50;;;9.50;99.90;;;;;;5052998;28;20311;-71
2022/05/29 10:47:29;;;;;;;2.65;1.00;;;9.40;99.90;;;;;;5048928;28;20041;-72
2022/05/29 10:50:30;;;;;;;3.85;1.23;;;9.40;99.90;;;;;;5052937;28;20104;-72
2022/05/29 10:53:20;;;;;;;3.17;1.15;;;9.40;99.90;;;;;;5052629;28;20037;-70
2022/05/29 10:55:55;;;;;;;3.53;1.05;;;9.40;99.90;;;;;;5051711;28;20083;-72
2022/05/29 10:58:42;;;;;;;2.45;1.17;;;9.40;99.90;;;;;;5053309;28;20025;-72
2022/05/29 11:04:22;;;;;;;3.20;1.50;;;9.40;99.90;;;;;;5052477;28;20470;-71
2022/05/29 11:07:23;;;;;;;5.25;1.70;;;9.40;99.90;;;;;;5053138;28;20032;-71
2022/05/29 11:09:59;;;;;;;9.93;3.15;;;9.40;99.90;;;;;;5053065;28;20071;-71
2022/05/29 11:13:02;;;;;;;10.60;3.75;;;9.40;99.90;;;;;;5053083;28;20465;-70
2022/05/29 11:15:46;;;;;;;3.85;1.50;;;9.40;99.90;;;;;;5044499;28;20106;-71
2022/05/29 11:18:17;;;;;;;3.17;1.50;;;9.30;99.90;;;;;;5053294;28;20025;-71
2022/05/29 11:20:46;;;;;;;3.85;1.27;;;9.30;99.90;;;;;;5052614;28;20104;-71
2022/05/29 11:23:50;;;;;;;3.42;1.35;;;9.30;99.90;;;;;;5053643;28;20108;-71
2022/05/29 11:26:34;;;;;;;3.25;1.38;;;9.30;99.90;;;;;;5055488;28;20537;-71
2022/05/29 11:29:33;;;;;;;5.35;1.33;;;9.30;99.90;;;;;;5056612;28;20025;-71
2022/05/29 11:32:28;;;;;;;2.83;1.40;;;9.40;99.90;;;;;;5056215;28;20066;-71
2022/05/29 11:35:15;;;;;;;2.60;1.25;;;9.40;99.90;;;;;;5056527;28;20523;-71
2022/05/29 11:38:06;;;;;;;3.50;1.23;;;9.40;99.90;;;;;;5056708;28;20021;-71
2022/05/29 11:40:36;;;;;;;2.20;1.38;;;9.40;99.90;;;;;;5056019;28;20028;-71
2022/05/29 11:43:26;;;;;;;2.22;1.40;;;9.30;99.90;;;;;;5056392;28;20476;-71
2022/05/29 11:52:30;;;;;;;3.80;2.35;;;9.30;99.90;;;;;;5053689;28;20109;-71
2022/05/29 11:55:12;;;;;;;3.00;2.03;;;9.40;99.90;;;;;;5056381;28;20053;-71
2022/05/29 11:58:17;;;;;;;2.78;1.25;;;9.50;99.90;;;;;;5056306;28;20105;-71
2022/05/29 12:00:55;;;;;;;5.78;1.20;;;9.50;99.90;;;;;;5062071;28;20086;-69
2022/05/29 12:03:31;;;;;;;3.05;1.30;;;9.50;99.90;;;;;;5075173;28;20032;-68
2022/05/29 12:06:13;;;;;;;4.15;1.48;;;9.50;99.90;;;;;;5072081;28;20033;-69
2022/05/29 12:08:53;;;;;;;3.47;1.70;;;9.50;99.90;;;;;;5074387;28;20031;-69
2022/05/29 12:11:25;;;;;;;3.13;1.30;;;9.50;99.90;;;;;;5074869;28;20021;-69
2022/05/29 12:13:59;;;;;;;2.28;0.93;;;9.50;99.90;;;;;;5074908;28;20020;-69
2022/05/29 12:16:30;;;;;;;3.60;1.48;;;9.50;99.90;;;;;;5074850;28;20105;-69
2022/05/29 12:18:59;;;;;;;1.90;0.95;;;9.50;99.90;;;;;;5074889;28;20039;-68
2022/05/29 12:21:46;;;;;;;2.45;0.80;;;9.60;99.90;;;;;;5070860;28;20056;-68
2022/05/29 12:24:16;;;;;;;1.75;1.05;;;9.60;99.90;;;;;;5074373;28;20066;-69
2022/05/29 12:26:48;;;;;;;2.88;0.85;;;9.60;99.90;;;;;;5074698;28;20016;-69
2022/05/29 12:29:22;;;;;;;2.15;1.00;;;9.60;99.90;;;;;;5074824;28;20028;-69
2022/05/29 12:31:53;;;;;;;2.38;1.05;;;9.80;99.90;;;;;;5074573;28;20541;-69
2022/05/29 12:34:34;;;;;;;3.65;1.15;;;9.80;99.90;;;;;;5074154;28;20020;-69
2022/05/29 12:37:29;;;;;;;2.33;1.15;;;9.90;99.90;;;;;;5074603;28;20078;-68
2022/05/29 12:40:27;;;;;;;5.93;0.93;;;9.90;99.90;;;;;;5065998;28;20040;-69
2022/05/29 12:43:28;;;;;;;2.22;1.00;;;9.90;99.90;;;;;;5074407;28;20055;-68
2022/05/29 12:46:05;;;;;;;;;;;9.90;99.90;;;;;;5074726;28;20070;-69
2022/05/29 12:48:52;;;;;;;1.45;0.68;;;9.90;99.90;;;;;;5074196;28;19931;-69
2022/05/29 12:51:30;;;;;;;1.60;0.82;;;10.00;99.90;;;;;;5067201;28;20028;-69
2022/05/29 12:54:11;;;;;;;1.10;0.70;;;10.10;99.90;;;;;;5055030;28;20136;-69
2022/05/29 12:56:55;;;;;;;1.70;0.77;;;10.10;99.90;;;;;;5054731;28;20055;-68
2022/05/29 12:59:30;;;;;;;3.08;1.20;;;10.10;99.90;;;;;;5054822;28;20032;-69
2022/05/29 13:02:15;;;;;;;2.28;1.10;;;10.10;99.90;;;;;;5065648;28;20036;-69
2022/05/29 13:05:02;;;;;;;2.55;0.95;;;10.10;99.90;;;;;;5072489;28;20476;-69
2022/05/29 13:07:54;;;;;;;2.53;1.00;;;10.10;99.90;;;;;;5073850;28;20025;-69
2022/05/29 13:10:27;;;;;;;2.25;0.90;;;10.20;99.90;;;;;;5071746;28;20036;-69
2022/05/29 13:13:18;;;;;;;1.30;0.90;;;10.20;99.90;;;;;;5073817;28;20384;-69
2022/05/29 13:15:45;;;;;;;2.55;1.30;;;10.30;99.90;;;;;;5066476;28;20024;-68
2022/05/29 13:21:11;;;;;;;1.52;0.90;;;10.30;99.90;;;;;;5073837;28;20518;-68
2022/05/29 13:23:52;;;;;;;2.33;0.70;;;10.30;99.90;;;;;;5072246;28;20119;-69
2022/05/29 13:26:24;;;;;;;;;;;10.40;99.90;;;;;;5073666;28;20365;-69
2022/05/29 13:28:50;;;;;;;1.83;1.00;;;10.40;99.90;;;;;;5073461;28;19974;-69
2022/05/29 13:31:17;;;;;;;2.70;1.02;;;10.50;99.90;;;;;;5065736;28;20071;-69
2022/05/29 13:33:43;;;;;;;2.58;0.98;;;10.50;99.90;;;;;;5073320;28;20016;-69
2022/05/29 13:36:10;;;;;;;1.50;0.70;;;10.50;99.90;;;;;;5069249;28;20511;-71
2022/05/29 13:38:45;;;;;;;1.80;0.90;;;10.50;99.90;;;;;;5073364;28;20024;-71
2022/05/29 13:41:52;;;;;;;2.25;1.00;;;10.50;99.90;;;;;;5072899;28;20047;-71
2022/05/29 13:44:38;;;;;;;2.08;0.98;;;10.60;99.90;;;;;;5073335;28;20029;-71
2022/05/29 13:47:23;;;;;;;3.30;1.00;;;10.60;99.90;;;;;;5071168;28;20070;-68
2022/05/29 13:50:01;;;;;;;2.17;1.08;;;10.70;99.90;;;;;;5068443;28;20021;-68
2022/05/29 13:52:54;;;;;;;2.15;1.17;;;10.70;99.90;;;;;;5073131;28;20023;-68
2022/05/29 13:55:35;;;;;;;3.38;1.00;;;10.80;99.90;;;;;;5066398;28;20021;-68
2022/05/29 14:04:39;;;;;;;4.43;1.50;;;10.90;99.90;;;;;;5072849;28;20498;-68
2022/05/29 14:07:12;;;;;;;3.50;1.67;;;10.90;99.90;;;;;;5072085;28;20327;-68
2022/05/29 14:09:59;;;;;;;3.65;1.40;;;10.90;99.90;;;;;;5072831;28;20029;-68
2022/05/29 14:12:24;;;;;;;2.88;1.00;;;10.90;99.90;;;;;;5071435;28;20028;-68
2022/05/29 14:14:52;;;;;;;3.08;1.30;;;10.90;99.90;;;;;;5072882;28;20488;-68